Google Maps JavaScript API Example
Pilot Flight Report # 93461 Submitted by : AST775 on 2019-12-01
Date: 2019-12-01Aircraft: Boeing 737 MAX7
Flight No.: AST16091Distance (Nm): 632.09
Departure: GUCY - GbessiaDestination: DIAP - Felix Houphouet-Boigny
 TimeFuelWeightSpeeds  
Out (Taxi)0657Z14665 lbs127557 lbs Flight RulesVFR
Off (Takeoff)0657Z 127429 lbs172 ktsFlight Level32000
On (Landing)0828Z 119175 lbs146 ktsVSTD-215 ft/min
In (Ramp)0828Z6277 lbs119167 lbs ZFW112890 lbs
Flight1.50  -  1:318253 lbs  Pax0
Block1.52  -  1:318388 lbs  Cargo0
Departure WeatherGFLL 260656Z 28807KT 46SM SCT020 SCT120 32/26 A2985
Destination WeatherDIAP 260828Z 23604KT 56SM FEW012 28/24 A2982
Flight CommentsLeg 2 - GUCY - DIAP